sensor_id;sensor_type;location;lat;lon;timestamp;pressure;altitude;pressure_sealevel;temperature
8533;BMP280;4304;53.876;10.662;2023-11-21T00:00:45;101009.69;;;7.06
8533;BMP280;4304;53.876;10.662;2023-11-21T00:03:11;101002.06;;;7.04
8533;BMP280;4304;53.876;10.662;2023-11-21T00:05:36;101006.22;;;7.07
8533;BMP280;4304;53.876;10.662;2023-11-21T00:08:01;101003.84;;;7.02
8533;BMP280;4304;53.876;10.662;2023-11-21T00:10:27;101006.56;;;6.99
8533;BMP280;4304;53.876;10.662;2023-11-21T00:12:53;101001.88;;;6.90
8533;BMP280;4304;53.876;10.662;2023-11-21T00:15:20;101016.09;;;6.99
8533;BMP280;4304;53.876;10.662;2023-11-21T00:17:45;101022.06;;;6.99
8533;BMP280;4304;53.876;10.662;2023-11-21T00:20:11;101021.00;;;6.86
8533;BMP280;4304;53.876;10.662;2023-11-21T00:22:38;101031.72;;;6.96
8533;BMP280;4304;53.876;10.662;2023-11-21T00:25:05;101030.50;;;6.86
8533;BMP280;4304;53.876;10.662;2023-11-21T00:27:31;101040.81;;;6.86
8533;BMP280;4304;53.876;10.662;2023-11-21T00:29:56;101041.59;;;6.88
8533;BMP280;4304;53.876;10.662;2023-11-21T00:32:21;101049.63;;;6.82
8533;BMP280;4304;53.876;10.662;2023-11-21T00:34:47;101045.91;;;6.87
8533;BMP280;4304;53.876;10.662;2023-11-21T00:37:12;101042.38;;;6.90
8533;BMP280;4304;53.876;10.662;2023-11-21T00:39:37;101050.88;;;6.92
8533;BMP280;4304;53.876;10.662;2023-11-21T00:42:03;101046.78;;;6.88
8533;BMP280;4304;53.876;10.662;2023-11-21T00:44:30;101056.09;;;6.90
8533;BMP280;4304;53.876;10.662;2023-11-21T00:46:55;101062.97;;;6.91
8533;BMP280;4304;53.876;10.662;2023-11-21T00:49:20;101059.69;;;6.88
8533;BMP280;4304;53.876;10.662;2023-11-21T00:51:45;101064.41;;;6.97
8533;BMP280;4304;53.876;10.662;2023-11-21T00:54:11;101058.63;;;6.92
8533;BMP280;4304;53.876;10.662;2023-11-21T00:56:36;101066.31;;;6.93
8533;BMP280;4304;53.876;10.662;2023-11-21T00:59:02;101067.50;;;6.86
8533;BMP280;4304;53.876;10.662;2023-11-21T01:01:30;101059.97;;;6.82
8533;BMP280;4304;53.876;10.662;2023-11-21T01:03:55;101063.94;;;6.89
8533;BMP280;4304;53.876;10.662;2023-11-21T01:06:20;101072.50;;;6.89
8533;BMP280;4304;53.876;10.662;2023-11-21T01:08:45;101074.19;;;6.90
8533;BMP280;4304;53.876;10.662;2023-11-21T01:11:11;101094.03;;;6.90
8533;BMP280;4304;53.876;10.662;2023-11-21T01:13:37;101085.66;;;6.85
8533;BMP280;4304;53.876;10.662;2023-11-21T01:16:03;101089.44;;;6.78
8533;BMP280;4304;53.876;10.662;2023-11-21T01:18:29;101099.59;;;6.81
8533;BMP280;4304;53.876;10.662;2023-11-21T01:20:54;101097.81;;;6.83
8533;BMP280;4304;53.876;10.662;2023-11-21T01:23:19;101108.22;;;6.81
8533;BMP280;4304;53.876;10.662;2023-11-21T01:25:45;101107.22;;;6.84
8533;BMP280;4304;53.876;10.662;2023-11-21T01:28:10;101107.78;;;6.90
8533;BMP280;4304;53.876;10.662;2023-11-21T01:30:35;101114.75;;;6.88
8533;BMP280;4304;53.876;10.662;2023-11-21T01:33:00;101108.03;;;6.84
8533;BMP280;4304;53.876;10.662;2023-11-21T01:35:26;101110.56;;;6.86
8533;BMP280;4304;53.876;10.662;2023-11-21T01:37:51;101124.28;;;6.88
8533;BMP280;4304;53.876;10.662;2023-11-21T01:40:16;101120.44;;;6.78
8533;BMP280;4304;53.876;10.662;2023-11-21T01:42:42;101121.94;;;6.82
8533;BMP280;4304;53.876;10.662;2023-11-21T01:45:09;101127.19;;;6.80
8533;BMP280;4304;53.876;10.662;2023-11-21T01:47:35;101129.78;;;6.80
8533;BMP280;4304;53.876;10.662;2023-11-21T01:50:02;101132.16;;;6.85
8533;BMP280;4304;53.876;10.662;2023-11-21T01:52:29;101133.13;;;6.82
8533;BMP280;4304;53.876;10.662;2023-11-21T01:54:55;101134.03;;;6.81
8533;BMP280;4304;53.876;10.662;2023-11-21T01:57:21;101131.53;;;6.80
8533;BMP280;4304;53.876;10.662;2023-11-21T01:59:48;101140.22;;;6.78
8533;BMP280;4304;53.876;10.662;2023-11-21T02:02:14;101146.25;;;6.78
8533;BMP280;4304;53.876;10.662;2023-11-21T02:04:39;101157.28;;;6.81
8533;BMP280;4304;53.876;10.662;2023-11-21T02:07:05;101153.16;;;6.78
8533;BMP280;4304;53.876;10.662;2023-11-21T02:09:33;101153.16;;;6.78
8533;BMP280;4304;53.876;10.662;2023-11-21T02:11:59;101157.22;;;6.83
8533;BMP280;4304;53.876;10.662;2023-11-21T02:14:27;101160.63;;;6.83
8533;BMP280;4304;53.876;10.662;2023-11-21T02:16:54;62739.47;;;-135.59
8533;BMP280;4304;53.876;10.662;2023-11-21T02:19:21;62739.47;;;-135.59
8533;BMP280;4304;53.876;10.662;2023-11-21T02:21:56;62739.47;;;-135.59
8533;BMP280;4304;53.876;10.662;2023-11-21T02:24:24;62739.47;;;-135.59
8533;BMP280;4304;53.876;10.662;2023-11-21T02:26:50;62739.47;;;-135.59
8533;BMP280;4304;53.876;10.662;2023-11-21T02:29:18;62739.47;;;-135.59
8533;BMP280;4304;53.876;10.662;2023-11-21T02:31:47;62739.47;;;-135.59
8533;BMP280;4304;53.876;10.662;2023-11-21T02:34:15;62739.47;;;-135.59
8533;BMP280;4304;53.876;10.662;2023-11-21T02:36:42;62739.47;;;-135.59
8533;BMP280;4304;53.876;10.662;2023-11-21T02:39:08;62739.47;;;-135.59
8533;BMP280;4304;53.876;10.662;2023-11-21T02:41:33;62739.47;;;-135.59
8533;BMP280;4304;53.876;10.662;2023-11-21T02:43:59;62739.47;;;-135.59
8533;BMP280;4304;53.876;10.662;2023-11-21T02:46:25;62739.47;;;-135.59
8533;BMP280;4304;53.876;10.662;2023-11-21T02:48:50;62739.47;;;-135.59
8533;BMP280;4304;53.876;10.662;2023-11-21T02:51:16;62739.47;;;-135.59
8533;BMP280;4304;53.876;10.662;2023-11-21T02:53:41;62739.47;;;-135.59
8533;BMP280;4304;53.876;10.662;2023-11-21T02:56:07;62739.47;;;-135.59
8533;BMP280;4304;53.876;10.662;2023-11-21T02:58:32;62739.47;;;-135.59
8533;BMP280;4304;53.876;10.662;2023-11-21T03:00:57;62739.47;;;-135.59
8533;BMP280;4304;53.876;10.662;2023-11-21T03:03:23;62739.47;;;-135.59
8533;BMP280;4304;53.876;10.662;2023-11-21T03:05:49;62739.47;;;-135.59
8533;BMP280;4304;53.876;10.662;2023-11-21T03:08:14;62739.47;;;-135.59
8533;BMP280;4304;53.876;10.662;2023-11-21T03:10:40;62739.47;;;-135.59
8533;BMP280;4304;53.876;10.662;2023-11-21T03:13:05;62739.47;;;-135.59
8533;BMP280;4304;53.876;10.662;2023-11-21T03:15:31;62739.47;;;-135.59
8533;BMP280;4304;53.876;10.662;2023-11-21T03:17:57;62739.47;;;-135.59
8533;BMP280;4304;53.876;10.662;2023-11-21T03:20:23;62739.47;;;-135.59
8533;BMP280;4304;53.876;10.662;2023-11-21T03:22:48;62739.47;;;-135.59
8533;BMP280;4304;53.876;10.662;2023-11-21T03:25:15;62739.47;;;-135.59
8533;BMP280;4304;53.876;10.662;2023-11-21T03:27:42;62739.47;;;-135.59
8533;BMP280;4304;53.876;10.662;2023-11-21T03:30:09;62739.47;;;-135.59
8533;BMP280;4304;53.876;10.662;2023-11-21T03:32:36;62739.47;;;-135.59
8533;BMP280;4304;53.876;10.662;2023-11-21T03:35:01;62739.47;;;-135.59
8533;BMP280;4304;53.876;10.662;2023-11-21T03:37:27;62739.47;;;-135.59
8533;BMP280;4304;53.876;10.662;2023-11-21T03:39:52;62739.47;;;-135.59
8533;BMP280;4304;53.876;10.662;2023-11-21T03:42:18;62739.47;;;-135.59
8533;BMP280;4304;53.876;10.662;2023-11-21T03:44:43;62739.47;;;-135.59
8533;BMP280;4304;53.876;10.662;2023-11-21T03:47:09;62739.47;;;-135.59
8533;BMP280;4304;53.876;10.662;2023-11-21T03:49:34;62739.47;;;-135.59
8533;BMP280;4304;53.876;10.662;2023-11-21T03:51:59;62739.47;;;-135.59
8533;BMP280;4304;53.876;10.662;2023-11-21T03:54:25;62739.47;;;-135.59
8533;BMP280;4304;53.876;10.662;2023-11-21T03:56:50;62739.47;;;-135.59
8533;BMP280;4304;53.876;10.662;2023-11-21T03:59:15;62739.47;;;-135.59
8533;BMP280;4304;53.876;10.662;2023-11-21T04:01:41;62739.47;;;-135.59
8533;BMP280;4304;53.876;10.662;2023-11-21T04:04:06;62739.47;;;-135.59
8533;BMP280;4304;53.876;10.662;2023-11-21T04:06:31;62739.47;;;-135.59
8533;BMP280;4304;53.876;10.662;2023-11-21T04:08:58;62739.47;;;-135.59
8533;BMP280;4304;53.876;10.662;2023-11-21T04:11:23;62739.47;;;-135.59
8533;BMP280;4304;53.876;10.662;2023-11-21T04:13:48;62739.47;;;-135.59
8533;BMP280;4304;53.876;10.662;2023-11-21T04:16:14;62739.47;;;-135.59
8533;BMP280;4304;53.876;10.662;2023-11-21T04:18:39;62739.47;;;-135.59
8533;BMP280;4304;53.876;10.662;2023-11-21T04:21:05;62739.47;;;-135.59
8533;BMP280;4304;53.876;10.662;2023-11-21T04:23:30;62739.47;;;-135.59
8533;BMP280;4304;53.876;10.662;2023-11-21T04:25:59;62739.47;;;-135.59
8533;BMP280;4304;53.876;10.662;2023-11-21T04:28:24;62739.47;;;-135.59
8533;BMP280;4304;53.876;10.662;2023-11-21T04:30:50;62739.47;;;-135.59
8533;BMP280;4304;53.876;10.662;2023-11-21T04:33:15;62739.47;;;-135.59
8533;BMP280;4304;53.876;10.662;2023-11-21T04:35:41;62739.47;;;-135.59
8533;BMP280;4304;53.876;10.662;2023-11-21T04:38:06;62739.47;;;-135.59
8533;BMP280;4304;53.876;10.662;2023-11-21T04:40:32;62739.47;;;-135.59
8533;BMP280;4304;53.876;10.662;2023-11-21T04:42:57;62739.47;;;-135.59
8533;BMP280;4304;53.876;10.662;2023-11-21T04:45:23;62739.47;;;-135.59
8533;BMP280;4304;53.876;10.662;2023-11-21T04:47:48;62739.47;;;-135.59
8533;BMP280;4304;53.876;10.662;2023-11-21T04:50:13;62739.47;;;-135.59
8533;BMP280;4304;53.876;10.662;2023-11-21T04:52:39;62739.47;;;-135.59
8533;BMP280;4304;53.876;10.662;2023-11-21T04:55:04;62739.47;;;-135.59
8533;BMP280;4304;53.876;10.662;2023-11-21T04:57:32;62739.47;;;-135.59
8533;BMP280;4304;53.876;10.662;2023-11-21T04:59:57;62739.47;;;-135.59
8533;BMP280;4304;53.876;10.662;2023-11-21T05:02:22;62739.47;;;-135.59
8533;BMP280;4304;53.876;10.662;2023-11-21T05:04:48;62739.47;;;-135.59
8533;BMP280;4304;53.876;10.662;2023-11-21T05:07:13;62739.47;;;-135.59
8533;BMP280;4304;53.876;10.662;2023-11-21T05:09:45;62739.47;;;-135.59
8533;BMP280;4304;53.876;10.662;2023-11-21T05:12:12;62739.47;;;-135.59
8533;BMP280;4304;53.876;10.662;2023-11-21T05:14:38;62739.47;;;-135.59
8533;BMP280;4304;53.876;10.662;2023-11-21T05:17:03;62739.47;;;-135.59
8533;BMP280;4304;53.876;10.662;2023-11-21T05:19:29;62739.47;;;-135.59
8533;BMP280;4304;53.876;10.662;2023-11-21T05:21:54;62739.47;;;-135.59
8533;BMP280;4304;53.876;10.662;2023-11-21T05:24:20;62739.47;;;-135.59
8533;BMP280;4304;53.876;10.662;2023-11-21T05:26:45;62739.47;;;-135.59
8533;BMP280;4304;53.876;10.662;2023-11-21T05:29:10;62739.47;;;-135.59
8533;BMP280;4304;53.876;10.662;2023-11-21T05:31:36;62739.47;;;-135.59
8533;BMP280;4304;53.876;10.662;2023-11-21T05:34:01;62739.47;;;-135.59
8533;BMP280;4304;53.876;10.662;2023-11-21T05:36:26;62739.47;;;-135.59
8533;BMP280;4304;53.876;10.662;2023-11-21T05:38:52;62739.47;;;-135.59
8533;BMP280;4304;53.876;10.662;2023-11-21T05:41:17;62739.47;;;-135.59
8533;BMP280;4304;53.876;10.662;2023-11-21T05:43:43;62739.47;;;-135.59
8533;BMP280;4304;53.876;10.662;2023-11-21T05:46:08;62739.47;;;-135.59
8533;BMP280;4304;53.876;10.662;2023-11-21T05:48:34;62739.47;;;-135.59
8533;BMP280;4304;53.876;10.662;2023-11-21T05:51:02;62739.47;;;-135.59
8533;BMP280;4304;53.876;10.662;2023-11-21T05:53:28;62739.47;;;-135.59
8533;BMP280;4304;53.876;10.662;2023-11-21T05:55:53;62739.47;;;-135.59
8533;BMP280;4304;53.876;10.662;2023-11-21T05:58:18;62739.47;;;-135.59
8533;BMP280;4304;53.876;10.662;2023-11-21T06:00:44;62739.47;;;-135.59
8533;BMP280;4304;53.876;10.662;2023-11-21T06:03:09;62739.47;;;-135.59
8533;BMP280;4304;53.876;10.662;2023-11-21T06:05:35;62739.47;;;-135.59
8533;BMP280;4304;53.876;10.662;2023-11-21T06:08:00;62739.47;;;-135.59
8533;BMP280;4304;53.876;10.662;2023-11-21T06:10:26;62739.47;;;-135.59
8533;BMP280;4304;53.876;10.662;2023-11-21T06:12:52;62739.47;;;-135.59
8533;BMP280;4304;53.876;10.662;2023-11-21T06:15:17;62739.47;;;-135.59
8533;BMP280;4304;53.876;10.662;2023-11-21T06:17:45;62739.47;;;-135.59
8533;BMP280;4304;53.876;10.662;2023-11-21T06:20:14;62739.47;;;-135.59
8533;BMP280;4304;53.876;10.662;2023-11-21T06:22:41;62739.47;;;-135.59
8533;BMP280;4304;53.876;10.662;2023-11-21T06:25:07;62739.47;;;-135.59
8533;BMP280;4304;53.876;10.662;2023-11-21T06:27:38;62739.47;;;-135.59
8533;BMP280;4304;53.876;10.662;2023-11-21T06:30:05;62739.47;;;-135.59
8533;BMP280;4304;53.876;10.662;2023-11-21T06:32:31;62739.47;;;-135.59
8533;BMP280;4304;53.876;10.662;2023-11-21T06:34:57;62739.47;;;-135.59
8533;BMP280;4304;53.876;10.662;2023-11-21T06:37:28;62739.47;;;-135.59
8533;BMP280;4304;53.876;10.662;2023-11-21T06:39:54;62739.47;;;-135.59
8533;BMP280;4304;53.876;10.662;2023-11-21T06:42:19;62739.47;;;-135.59
8533;BMP280;4304;53.876;10.662;2023-11-21T06:44:45;62739.47;;;-135.59
8533;BMP280;4304;53.876;10.662;2023-11-21T06:47:10;62739.47;;;-135.59
8533;BMP280;4304;53.876;10.662;2023-11-21T06:49:36;62739.47;;;-135.59
8533;BMP280;4304;53.876;10.662;2023-11-21T06:52:01;62739.47;;;-135.59
8533;BMP280;4304;53.876;10.662;2023-11-21T06:54:30;62739.47;;;-135.59
8533;BMP280;4304;53.876;10.662;2023-11-21T06:56:56;62739.47;;;-135.59
8533;BMP280;4304;53.876;10.662;2023-11-21T06:59:21;62739.47;;;-135.59
8533;BMP280;4304;53.876;10.662;2023-11-21T07:01:47;62739.47;;;-135.59
8533;BMP280;4304;53.876;10.662;2023-11-21T07:04:12;62739.47;;;-135.59
8533;BMP280;4304;53.876;10.662;2023-11-21T07:06:38;62739.47;;;-135.59
8533;BMP280;4304;53.876;10.662;2023-11-21T07:09:03;62739.47;;;-135.59
8533;BMP280;4304;53.876;10.662;2023-11-21T07:11:28;62739.47;;;-135.59
8533;BMP280;4304;53.876;10.662;2023-11-21T07:13:53;62739.47;;;-135.59
8533;BMP280;4304;53.876;10.662;2023-11-21T07:16:19;62739.47;;;-135.59
8533;BMP280;4304;53.876;10.662;2023-11-21T07:18:44;62739.47;;;-135.59
8533;BMP280;4304;53.876;10.662;2023-11-21T07:21:10;62739.47;;;-135.59
8533;BMP280;4304;53.876;10.662;2023-11-21T07:23:37;62739.47;;;-135.59
8533;BMP280;4304;53.876;10.662;2023-11-21T07:26:02;62739.47;;;-135.59
8533;BMP280;4304;53.876;10.662;2023-11-21T07:28:29;62739.47;;;-135.59
8533;BMP280;4304;53.876;10.662;2023-11-21T07:30:55;62739.47;;;-135.59
8533;BMP280;4304;53.876;10.662;2023-11-21T07:33:20;62739.47;;;-135.59
8533;BMP280;4304;53.876;10.662;2023-11-21T07:35:46;62739.47;;;-135.59
8533;BMP280;4304;53.876;10.662;2023-11-21T07:38:12;62739.47;;;-135.59
8533;BMP280;4304;53.876;10.662;2023-11-21T07:40:38;62739.47;;;-135.59
8533;BMP280;4304;53.876;10.662;2023-11-21T07:43:03;62739.47;;;-135.59
8533;BMP280;4304;53.876;10.662;2023-11-21T07:45:28;62739.47;;;-135.59
8533;BMP280;4304;53.876;10.662;2023-11-21T07:47:54;62739.47;;;-135.59
8533;BMP280;4304;53.876;10.662;2023-11-21T07:50:21;62739.47;;;-135.59
8533;BMP280;4304;53.876;10.662;2023-11-21T07:52:46;62739.47;;;-135.59
8533;BMP280;4304;53.876;10.662;2023-11-21T07:55:11;62739.47;;;-135.59
8533;BMP280;4304;53.876;10.662;2023-11-21T07:57:37;62739.47;;;-135.59
8533;BMP280;4304;53.876;10.662;2023-11-21T08:00:03;62739.47;;;-135.59
8533;BMP280;4304;53.876;10.662;2023-11-21T08:02:31;62739.47;;;-135.59
8533;BMP280;4304;53.876;10.662;2023-11-21T08:04:57;62739.47;;;-135.59
8533;BMP280;4304;53.876;10.662;2023-11-21T08:07:22;62739.47;;;-135.59
8533;BMP280;4304;53.876;10.662;2023-11-21T08:09:47;62739.47;;;-135.59
8533;BMP280;4304;53.876;10.662;2023-11-21T08:12:15;62739.47;;;-135.59
8533;BMP280;4304;53.876;10.662;2023-11-21T08:14:40;62739.47;;;-135.59
8533;BMP280;4304;53.876;10.662;2023-11-21T08:17:06;62739.47;;;-135.59
8533;BMP280;4304;53.876;10.662;2023-11-21T08:19:31;62739.47;;;-135.59
8533;BMP280;4304;53.876;10.662;2023-11-21T08:21:58;62739.47;;;-135.59
8533;BMP280;4304;53.876;10.662;2023-11-21T08:24:24;62739.47;;;-135.59
8533;BMP280;4304;53.876;10.662;2023-11-21T08:26:49;62739.47;;;-135.59
8533;BMP280;4304;53.876;10.662;2023-11-21T08:29:16;62739.47;;;-135.59
8533;BMP280;4304;53.876;10.662;2023-11-21T08:31:41;62739.47;;;-135.59
8533;BMP280;4304;53.876;10.662;2023-11-21T08:34:07;62739.47;;;-135.59
8533;BMP280;4304;53.876;10.662;2023-11-21T08:36:33;62739.47;;;-135.59
8533;BMP280;4304;53.876;10.662;2023-11-21T08:38:59;62739.47;;;-135.59
8533;BMP280;4304;53.876;10.662;2023-11-21T08:41:24;62739.47;;;-135.59
8533;BMP280;4304;53.876;10.662;2023-11-21T08:43:50;62739.47;;;-135.59
8533;BMP280;4304;53.876;10.662;2023-11-21T08:46:15;62739.47;;;-135.59
8533;BMP280;4304;53.876;10.662;2023-11-21T08:48:43;62739.47;;;-135.59
8533;BMP280;4304;53.876;10.662;2023-11-21T08:51:10;62739.47;;;-135.59
8533;BMP280;4304;53.876;10.662;2023-11-21T08:53:36;62739.47;;;-135.59
8533;BMP280;4304;53.876;10.662;2023-11-21T08:56:03;62739.47;;;-135.59
8533;BMP280;4304;53.876;10.662;2023-11-21T08:58:30;62739.47;;;-135.59
8533;BMP280;4304;53.876;10.662;2023-11-21T09:00:56;62739.47;;;-135.59
8533;BMP280;4304;53.876;10.662;2023-11-21T09:03:21;62739.47;;;-135.59
8533;BMP280;4304;53.876;10.662;2023-11-21T09:05:46;62739.47;;;-135.59
8533;BMP280;4304;53.876;10.662;2023-11-21T09:08:11;62739.47;;;-135.59
8533;BMP280;4304;53.876;10.662;2023-11-21T09:10:37;62739.47;;;-135.59
8533;BMP280;4304;53.876;10.662;2023-11-21T09:13:02;62739.47;;;-135.59
8533;BMP280;4304;53.876;10.662;2023-11-21T09:15:28;62739.47;;;-135.59
8533;BMP280;4304;53.876;10.662;2023-11-21T09:17:53;62739.47;;;-135.59
8533;BMP280;4304;53.876;10.662;2023-11-21T09:20:18;62739.47;;;-135.59
8533;BMP280;4304;53.876;10.662;2023-11-21T09:22:48;62739.47;;;-135.59
8533;BMP280;4304;53.876;10.662;2023-11-21T09:25:13;62739.47;;;-135.59
8533;BMP280;4304;53.876;10.662;2023-11-21T09:27:38;62739.47;;;-135.59
8533;BMP280;4304;53.876;10.662;2023-11-21T09:30:04;62739.47;;;-135.59
8533;BMP280;4304;53.876;10.662;2023-11-21T09:32:30;62739.47;;;-135.59
8533;BMP280;4304;53.876;10.662;2023-11-21T09:34:56;62739.47;;;-135.59
8533;BMP280;4304;53.876;10.662;2023-11-21T09:37:23;62739.47;;;-135.59
8533;BMP280;4304;53.876;10.662;2023-11-21T09:39:49;62739.47;;;-135.59
8533;BMP280;4304;53.876;10.662;2023-11-21T09:42:30;62739.47;;;-135.59
8533;BMP280;4304;53.876;10.662;2023-11-21T09:47:59;62739.47;;;-135.59
8533;BMP280;4304;53.876;10.662;2023-11-21T09:50:24;62739.47;;;-135.59
8533;BMP280;4304;53.876;10.662;2023-11-21T09:55:37;62739.47;;;-135.59
8533;BMP280;4304;53.876;10.662;2023-11-21T09:58:04;62739.47;;;-135.59
8533;BMP280;4304;53.876;10.662;2023-11-21T10:00:33;62739.47;;;-135.59
8533;BMP280;4304;53.876;10.662;2023-11-21T10:02:59;62739.47;;;-135.59
8533;BMP280;4304;53.876;10.662;2023-11-21T10:05:24;62739.47;;;-135.59
8533;BMP280;4304;53.876;10.662;2023-11-21T10:07:50;62739.47;;;-135.59
8533;BMP280;4304;53.876;10.662;2023-11-21T10:10:17;62739.47;;;-135.59
8533;BMP280;4304;53.876;10.662;2023-11-21T10:12:47;62739.47;;;-135.59
8533;BMP280;4304;53.876;10.662;2023-11-21T10:15:14;62739.47;;;-135.59
8533;BMP280;4304;53.876;10.662;2023-11-21T10:17:44;62739.47;;;-135.59
8533;BMP280;4304;53.876;10.662;2023-11-21T10:20:13;62739.47;;;-135.59
8533;BMP280;4304;53.876;10.662;2023-11-21T10:22:40;62739.47;;;-135.59
8533;BMP280;4304;53.876;10.662;2023-11-21T10:25:09;62739.47;;;-135.59
8533;BMP280;4304;53.876;10.662;2023-11-21T10:27:36;62739.47;;;-135.59
8533;BMP280;4304;53.876;10.662;2023-11-21T10:30:03;62739.47;;;-135.59
8533;BMP280;4304;53.876;10.662;2023-11-21T10:32:31;62739.47;;;-135.59
8533;BMP280;4304;53.876;10.662;2023-11-21T10:34:59;62739.47;;;-135.59
8533;BMP280;4304;53.876;10.662;2023-11-21T10:37:32;62739.47;;;-135.59
8533;BMP280;4304;53.876;10.662;2023-11-21T10:39:58;62739.47;;;-135.59
8533;BMP280;4304;53.876;10.662;2023-11-21T10:42:24;62739.47;;;-135.59
8533;BMP280;4304;53.876;10.662;2023-11-21T10:44:49;62739.47;;;-135.59
8533;BMP280;4304;53.876;10.662;2023-11-21T10:47:15;62739.47;;;-135.59
8533;BMP280;4304;53.876;10.662;2023-11-21T10:49:44;62739.47;;;-135.59
8533;BMP280;4304;53.876;10.662;2023-11-21T10:52:09;62739.47;;;-135.59
8533;BMP280;4304;53.876;10.662;2023-11-21T10:54:42;62739.47;;;-135.59
8533;BMP280;4304;53.876;10.662;2023-11-21T10:57:07;62739.47;;;-135.59
8533;BMP280;4304;53.876;10.662;2023-11-21T10:59:33;62739.47;;;-135.59
8533;BMP280;4304;53.876;10.662;2023-11-21T11:02:01;62739.47;;;-135.59
8533;BMP280;4304;53.876;10.662;2023-11-21T11:04:28;62739.47;;;-135.59
8533;BMP280;4304;53.876;10.662;2023-11-21T11:06:55;62739.47;;;-135.59
8533;BMP280;4304;53.876;10.662;2023-11-21T11:09:22;62739.47;;;-135.59
8533;BMP280;4304;53.876;10.662;2023-11-21T11:11:47;62739.47;;;-135.59
8533;BMP280;4304;53.876;10.662;2023-11-21T11:14:14;62739.47;;;-135.59
8533;BMP280;4304;53.876;10.662;2023-11-21T11:16:40;62739.47;;;-135.59
8533;BMP280;4304;53.876;10.662;2023-11-21T11:19:09;62739.47;;;-135.59
8533;BMP280;4304;53.876;10.662;2023-11-21T11:21:59;62739.47;;;-135.59
8533;BMP280;4304;53.876;10.662;2023-11-21T11:32:55;62739.47;;;-135.59
8533;BMP280;4304;53.876;10.662;2023-11-21T11:35:33;62739.47;;;-135.59
8533;BMP280;4304;53.876;10.662;2023-11-21T11:37:59;62739.47;;;-135.59
8533;BMP280;4304;53.876;10.662;2023-11-21T11:40:38;62739.47;;;-135.59
8533;BMP280;4304;53.876;10.662;2023-11-21T11:43:05;62739.47;;;-135.59
8533;BMP280;4304;53.876;10.662;2023-11-21T11:45:33;62739.47;;;-135.59
8533;BMP280;4304;53.876;10.662;2023-11-21T11:48:00;62739.47;;;-135.59
8533;BMP280;4304;53.876;10.662;2023-11-21T11:50:25;62739.47;;;-135.59
8533;BMP280;4304;53.876;10.662;2023-11-21T11:52:55;62739.47;;;-135.59
8533;BMP280;4304;53.876;10.662;2023-11-21T11:55:36;62739.47;;;-135.59
8533;BMP280;4304;53.876;10.662;2023-11-21T11:58:04;62739.47;;;-135.59
8533;BMP280;4304;53.876;10.662;2023-11-21T12:00:34;62739.47;;;-135.59
8533;BMP280;4304;53.876;10.662;2023-11-21T12:03:02;62739.47;;;-135.59
8533;BMP280;4304;53.876;10.662;2023-11-21T12:05:30;62739.47;;;-135.59
8533;BMP280;4304;53.876;10.662;2023-11-21T12:08:02;62739.47;;;-135.59
8533;BMP280;4304;53.876;10.662;2023-11-21T12:10:30;62739.47;;;-135.59
8533;BMP280;4304;53.876;10.662;2023-11-21T12:13:05;62739.47;;;-135.59
8533;BMP280;4304;53.876;10.662;2023-11-21T12:15:33;62739.47;;;-135.59
8533;BMP280;4304;53.876;10.662;2023-11-21T12:17:59;62739.47;;;-135.59
8533;BMP280;4304;53.876;10.662;2023-11-21T12:20:24;62739.47;;;-135.59
8533;BMP280;4304;53.876;10.662;2023-11-21T12:22:54;62739.47;;;-135.59
8533;BMP280;4304;53.876;10.662;2023-11-21T12:25:22;62739.47;;;-135.59
8533;BMP280;4304;53.876;10.662;2023-11-21T12:27:49;62739.47;;;-135.59
8533;BMP280;4304;53.876;10.662;2023-11-21T12:30:16;62739.47;;;-135.59
8533;BMP280;4304;53.876;10.662;2023-11-21T12:32:43;62739.47;;;-135.59
8533;BMP280;4304;53.876;10.662;2023-11-21T12:35:09;62739.47;;;-135.59
8533;BMP280;4304;53.876;10.662;2023-11-21T12:37:37;62739.47;;;-135.59
8533;BMP280;4304;53.876;10.662;2023-11-21T12:40:05;62739.47;;;-135.59
8533;BMP280;4304;53.876;10.662;2023-11-21T12:42:32;62739.47;;;-135.59
8533;BMP280;4304;53.876;10.662;2023-11-21T12:45:27;62739.47;;;-135.59
8533;BMP280;4304;53.876;10.662;2023-11-21T12:48:01;62739.47;;;-135.59
8533;BMP280;4304;53.876;10.662;2023-11-21T12:50:30;62739.47;;;-135.59
8533;BMP280;4304;53.876;10.662;2023-11-21T12:53:06;62739.47;;;-135.59
8533;BMP280;4304;53.876;10.662;2023-11-21T12:55:34;62739.47;;;-135.59
8533;BMP280;4304;53.876;10.662;2023-11-21T12:58:03;62739.47;;;-135.59
8533;BMP280;4304;53.876;10.662;2023-11-21T13:00:47;62739.47;;;-135.59
8533;BMP280;4304;53.876;10.662;2023-11-21T13:03:13;62739.47;;;-135.59
8533;BMP280;4304;53.876;10.662;2023-11-21T13:05:43;62739.47;;;-135.59
8533;BMP280;4304;53.876;10.662;2023-11-21T13:08:15;62739.47;;;-135.59
8533;BMP280;4304;53.876;10.662;2023-11-21T13:10:45;62739.47;;;-135.59
8533;BMP280;4304;53.876;10.662;2023-11-21T13:13:13;62739.47;;;-135.59
8533;BMP280;4304;53.876;10.662;2023-11-21T13:15:48;62739.47;;;-135.59
8533;BMP280;4304;53.876;10.662;2023-11-21T13:18:13;62739.47;;;-135.59
8533;BMP280;4304;53.876;10.662;2023-11-21T13:20:39;62739.47;;;-135.59
8533;BMP280;4304;53.876;10.662;2023-11-21T13:23:07;62739.47;;;-135.59
8533;BMP280;4304;53.876;10.662;2023-11-21T13:25:33;62739.47;;;-135.59
8533;BMP280;4304;53.876;10.662;2023-11-21T13:27:59;62739.47;;;-135.59
8533;BMP280;4304;53.876;10.662;2023-11-21T13:30:26;62739.47;;;-135.59
8533;BMP280;4304;53.876;10.662;2023-11-21T13:32:56;62739.47;;;-135.59
8533;BMP280;4304;53.876;10.662;2023-11-21T13:35:31;62739.47;;;-135.59
8533;BMP280;4304;53.876;10.662;2023-11-21T13:38:09;62739.47;;;-135.59
8533;BMP280;4304;53.876;10.662;2023-11-21T13:40:36;62739.47;;;-135.59
8533;BMP280;4304;53.876;10.662;2023-11-21T13:43:15;62739.47;;;-135.59
8533;BMP280;4304;53.876;10.662;2023-11-21T13:45:43;62739.47;;;-135.59
8533;BMP280;4304;53.876;10.662;2023-11-21T13:48:10;62739.47;;;-135.59
8533;BMP280;4304;53.876;10.662;2023-11-21T13:50:42;62739.47;;;-135.59
8533;BMP280;4304;53.876;10.662;2023-11-21T13:53:13;62739.47;;;-135.59
8533;BMP280;4304;53.876;10.662;2023-11-21T13:55:47;62739.47;;;-135.59
8533;BMP280;4304;53.876;10.662;2023-11-21T13:58:14;62739.47;;;-135.59
8533;BMP280;4304;53.876;10.662;2023-11-21T14:00:45;62739.47;;;-135.59
8533;BMP280;4304;53.876;10.662;2023-11-21T14:03:14;62739.47;;;-135.59
8533;BMP280;4304;53.876;10.662;2023-11-21T14:05:46;62739.47;;;-135.59
8533;BMP280;4304;53.876;10.662;2023-11-21T14:08:17;62739.47;;;-135.59
8533;BMP280;4304;53.876;10.662;2023-11-21T14:10:45;62739.47;;;-135.59
8533;BMP280;4304;53.876;10.662;2023-11-21T14:13:16;62739.47;;;-135.59